This is the latest recevied weather packets stored in our database for station/object CT4TX-11. If no packets are shown the sender has not sent any weather packets the latest 1 day(s).
| Time | Temp. | Humidity | Pressure | Rain* | Wind** | Luminosity | Snow |
|---|---|---|---|---|---|---|---|
| 1778048388 | 23.33° C | 45% | 1001.9 hPa | - | - | - | - |
| 1778047488 | 23.33° C | 46% | 1001.8 hPa | - | - | - | - |
| 1778046588 | 23.33° C | 48% | 1001.8 hPa | - | - | - | - |
| 1778044787 | 23.33° C | 47% | 1001.7 hPa | - | - | - | - |
| 1778043887 | 23.33° C | 48% | 1001.7 hPa | - | - | - | - |
| 1778042987 | 23.33° C | 48% | 1001.7 hPa | - | - | - | - |
| 1778041186 | 23.33° C | 49% | 1001.7 hPa | - | - | - | - |
| 1778040286 | 23.89° C | 49% | 1001.8 hPa | - | - | - | - |
| 1778039385 | 23.89° C | 49% | 1001.7 hPa | - | - | - | - |
| 1778038490 | 23.89° C | 49% | 1001.8 hPa | - | - | - | - |
| 1778037590 | 23.89° C | 49% | 1002 hPa | - | - | - | - |
| 1778035789 | 23.89° C | 50% | 1002 hPa | - | - | - | - |
| 1778034889 | 23.89° C | 50% | 1002 hPa | - | - | - | - |
| 1778033989 | 23.89° C | 50% | 1002.2 hPa | - | - | - | - |
| 1778033088 | 23.89° C | 51% | 1002.3 hPa | - | - | - | - |
| 1778032188 | 23.89° C | 51% | 1002.3 hPa | - | - | - | - |
| 1778031288 | 23.89° C | 51% | 1002.5 hPa | - | - | - | - |
| 1778030388 | 23.89° C | 51% | 1002.7 hPa | - | - | - | - |
| 1778028587 | 23.89° C | 51% | 1002.9 hPa | - | - | - | - |
| 1778027687 | 23.89° C | 52% | 1003.2 hPa | - | - | - | - |
| 1778026787 | 23.89° C | 51% | 1003.2 hPa | - | - | - | - |
| 1778023186 | 25° C | 45% | 1003.8 hPa | - | - | - | - |
| 1778019585 | 25.56° C | 43% | 1004.4 hPa | - | - | - | - |
| 1778015989 | 25° C | 40% | 1004.7 hPa | - | - | - | - |
| 1778012388 | 25° C | 39% | 1004.5 hPa | - | - | - | - |
* Rain since midnight (hover to see other rain measurements)
** Current wind speed in m/s (hover to see current wind gust speed)